Time;durP1;ratioP1;P1;durP2;ratioP2;P2;SDS_P1;SDS_P2;PMS_P1;PMS_P2;Temp;Humidity;BMP_temperature;BMP_pressure;BME280_temperature;BME280_humidity;BME280_pressure;Samples;Min_cycle;Max_cycle;Signal;HPM_P1;HPM_P2
2022/06/18 00:00:25;;;;;;;42.30;9.98;;;;;;;;;;5040015;28;20041;-60
2022/06/18 00:02:51;;;;;;;39.33;10.13;;;;;;;;;;5041942;28;20091;-60
2022/06/18 00:05:19;;;;;;;22.60;9.70;;;;;;;;;;5044627;28;20604;-61
2022/06/18 00:07:48;;;;;;;34.60;11.00;;;;;;;;;;5045963;28;20037;-61
2022/06/18 00:10:16;;;;;;;44.63;11.13;;;;;;;;;;5046965;28;20042;-61
2022/06/18 00:15:29;;;;;;;33.55;10.85;;;;;;;;;;5047775;28;20142;-60
2022/06/18 00:17:56;;;;;;;34.70;10.10;;;;;;;;;;5044131;28;20041;-60
2022/06/18 00:20:24;;;;;;;29.15;11.45;;;;;;;;;;5040994;28;20045;-60
2022/06/18 00:22:53;;;;;;;32.08;13.00;;;;;;;;;;5045394;28;20033;-61
2022/06/18 00:25:20;;;;;;;24.48;11.68;;;;;;;;;;5046945;28;20046;-61
2022/06/18 00:27:46;;;;;;;29.67;12.27;;;;;;;;;;5052841;28;20056;-62
2022/06/18 00:30:15;;;;;;;45.75;13.20;;;;;;;;;;5045535;28;20072;-62
2022/06/18 00:32:41;;;;;;;26.90;10.75;;;;;;;;;;5045352;28;20040;-62
2022/06/18 00:35:09;;;;;;;30.73;9.25;;;;;;;;;;5043809;28;20106;-62
2022/06/18 00:37:36;;;;;;;47.90;11.27;;;;;;;;;;5047023;28;20052;-62
2022/06/18 00:40:10;;;;;;;40.78;10.90;;;;;;;;;;5049185;28;20049;-62
2022/06/18 00:42:37;;;;;;;;;;;;;;;;;;5050160;28;20045;-62
2022/06/18 00:45:04;;;;;;;34.70;10.20;;;;;;;;;;5043417;28;20331;-63
2022/06/18 00:47:34;;;;;;;25.10;10.85;;;;;;;;;;5029170;28;20033;-63
2022/06/18 00:50:02;;;;;;;51.08;12.63;;;;;;;;;;5042164;28;20037;-62
2022/06/18 00:52:47;;;;;;;35.53;13.30;;;;;;;;;;5043533;28;20049;-63
2022/06/18 00:55:20;;;;;;;29.77;12.10;;;;;;;;;;5046663;28;20046;-62
2022/06/18 00:57:49;;;;;;;24.85;10.77;;;;;;;;;;5045331;28;20033;-62
2022/06/18 01:00:19;;;;;;;31.80;11.65;;;;;;;;;;5043426;28;20041;-62
2022/06/18 01:02:46;;;;;;;37.35;11.55;;;;;;;;;;5044251;28;20405;-63
2022/06/18 01:05:14;;;;;;;56.97;14.32;;;;;;;;;;5042032;28;20420;-62
2022/06/18 01:07:42;;;;;;;36.10;12.65;;;;;;;;;;5042682;28;20030;-61
2022/06/18 01:10:17;;;;;;;60.42;13.13;;;;;;;;;;5046431;28;20106;-61
2022/06/18 01:12:44;;;;;;;23.98;10.07;;;;;;;;;;5049873;28;20123;-61
2022/06/18 01:15:11;;;;;;;22.48;8.73;;;;;;;;;;5038124;28;20049;-60
2022/06/18 01:17:47;;;;;;;;;;;;;;;;;;5037828;28;20041;-59
2022/06/18 01:20:14;;;;;;;30.02;8.43;;;;;;;;;;5041498;28;20403;-59
2022/06/18 01:22:53;;;;;;;43.45;9.52;;;;;;;;;;5042678;28;20104;-60
2022/06/18 01:25:20;;;;;;;18.08;7.47;;;;;;;;;;5044805;28;20049;-60
2022/06/18 01:27:49;;;;;;;31.30;8.27;;;;;;;;;;5050832;28;20059;-61
2022/06/18 01:30:22;;;;;;;18.42;7.05;;;;;;;;;;5043827;28;20078;-59
2022/06/18 01:32:52;;;;;;;39.85;9.05;;;;;;;;;;5041874;28;20080;-59
2022/06/18 01:35:23;;;;;;;46.17;9.23;;;;;;;;;;5041549;28;20120;-59
2022/06/18 01:38:13;;;;;;;27.17;8.43;;;;;;;;;;5042850;28;20053;-60
2022/06/18 01:43:56;;;;;;;26.83;7.57;;;;;;;;;;5042954;28;20052;-61
2022/06/18 01:46:23;;;;;;;28.58;8.80;;;;;;;;;;5036800;28;20087;-62
2022/06/18 01:48:50;;;;;;;42.67;9.93;;;;;;;;;;5045990;28;20075;-61
2022/06/18 01:51:21;;;;;;;25.58;8.35;;;;;;;;;;5041705;28;20049;-64
2022/06/18 01:53:58;;;;;;;38.85;10.13;;;;;;;;;;5041435;28;20482;-62
2022/06/18 01:56:45;;;;;;;33.22;10.20;;;;;;;;;;5043678;28;20044;-61
2022/06/18 01:59:24;;;;;;;38.30;9.98;;;;;;;;;;5034697;28;20144;-60
2022/06/18 02:01:51;;;;;;;39.20;10.73;;;;;;;;;;5042516;28;20052;-63
2022/06/18 02:04:20;;;;;;;39.55;11.15;;;;;;;;;;5042408;28;20069;-60
2022/06/18 02:06:49;;;;;;;38.83;11.02;;;;;;;;;;5050699;28;20124;-60
2022/06/18 02:09:27;;;;;;;36.05;10.98;;;;;;;;;;5041103;28;20037;-60
2022/06/18 02:11:55;;;;;;;37.20;10.10;;;;;;;;;;5042308;28;20055;-60
2022/06/18 02:14:22;;;;;;;29.55;9.85;;;;;;;;;;5042649;28;20033;-62
2022/06/18 02:16:50;;;;;;;36.90;10.30;;;;;;;;;;5042748;28;20474;-61
2022/06/18 02:19:18;;;;;;;48.50;10.77;;;;;;;;;;5044336;28;20395;-62
2022/06/18 02:21:46;;;;;;;37.60;9.88;;;;;;;;;;5048300;28;20701;-62
2022/06/18 02:24:13;;;;;;;34.53;9.55;;;;;;;;;;5040878;28;20082;-61
2022/06/18 02:26:43;;;;;;;33.58;9.48;;;;;;;;;;5041225;28;20500;-61
2022/06/18 02:29:16;;;;;;;44.45;9.88;;;;;;;;;;5043983;28;20037;-61
2022/06/18 02:31:45;;;;;;;43.80;10.57;;;;;;;;;;5039965;28;20044;-61
2022/06/18 02:34:15;;;;;;;51.88;10.90;;;;;;;;;;5046282;28;20047;-62
2022/06/18 02:36:42;;;;;;;22.92;9.25;;;;;;;;;;5048949;28;20049;-61
2022/06/18 02:39:09;;;;;;;47.53;10.90;;;;;;;;;;5040912;28;20065;-60
2022/06/18 02:41:40;;;;;;;48.63;10.88;;;;;;;;;;5041986;28;20515;-62
2022/06/18 02:44:08;;;;;;;38.75;10.35;;;;;;;;;;5042357;28;20120;-61
2022/06/18 02:46:35;;;;;;;37.85;10.73;;;;;;;;;;5035318;28;20061;-60
2022/06/18 02:49:03;;;;;;;47.92;10.93;;;;;;;;;;5048387;28;20037;-61
2022/06/18 02:51:32;;;;;;;44.55;10.38;;;;;;;;;;5078113;28;20409;-60
2022/06/18 02:54:02;;;;;;;33.60;9.35;;;;;;;;;;5038603;28;20128;-60
2022/06/18 02:56:30;;;;;;;32.40;9.60;;;;;;;;;;5036277;28;20448;-60
2022/06/18 02:58:56;;;;;;;28.58;9.70;;;;;;;;;;5045171;28;20489;-61
2022/06/18 03:01:28;;;;;;;32.53;9.32;;;;;;;;;;5047636;28;20053;-61
2022/06/18 03:03:56;;;;;;;27.75;9.15;;;;;;;;;;5053085;28;20095;-62
2022/06/18 03:06:28;;;;;;;25.75;9.52;;;;;;;;;;5049718;28;20382;-59
2022/06/18 03:08:55;;;;;;;46.38;9.13;;;;;;;;;;5046260;28;20036;-62
2022/06/18 03:14:09;;;;;;;52.35;8.30;;;;;;;;;;5048345;28;20497;-59
2022/06/18 03:16:35;;;;;;;21.95;5.80;;;;;;;;;;5046552;28;20049;-61
2022/06/18 03:19:03;;;;;;;42.15;7.18;;;;;;;;;;5051954;28;20048;-60
2022/06/18 03:21:37;;;;;;;33.42;7.47;;;;;;;;;;5082983;28;20398;-60
2022/06/18 03:24:04;;;;;;;26.63;6.28;;;;;;;;;;5045707;28;20037;-59
2022/06/18 03:26:32;;;;;;;25.98;6.30;;;;;;;;;;5044742;28;20409;-59
2022/06/18 03:28:58;;;;;;;39.22;7.18;;;;;;;;;;5043685;28;20087;-59
2022/06/18 03:31:25;;;;;;;42.92;7.65;;;;;;;;;;5044592;28;20045;-58
2022/06/18 03:33:52;;;;;;;47.63;8.98;;;;;;;;;;5044991;28;20053;-58
2022/06/18 03:36:19;;;;;;;50.85;8.85;;;;;;;;;;5043906;28;20456;-60
2022/06/18 03:38:46;;;;;;;32.42;7.95;;;;;;;;;;5043778;28;20132;-59
2022/06/18 03:41:14;;;;;;;56.13;9.68;;;;;;;;;;5043355;28;20045;-59
2022/06/18 03:43:41;;;;;;;42.35;9.13;;;;;;;;;;5045209;28;20065;-59
2022/06/18 03:46:11;;;;;;;51.08;9.50;;;;;;;;;;5041730;28;20123;-60
2022/06/18 03:48:54;;;;;;;31.23;8.88;;;;;;;;;;5040056;28;20072;-61
2022/06/18 03:51:26;;;;;;;26.98;7.47;;;;;;;;;;5044927;28;20052;-62
2022/06/18 03:53:53;;;;;;;35.53;8.18;;;;;;;;;;5041737;28;20038;-62
2022/06/18 03:56:22;;;;;;;45.70;9.73;;;;;;;;;;5033018;28;20037;-62
2022/06/18 03:58:49;;;;;;;23.95;7.22;;;;;;;;;;5044359;28;20120;-61
2022/06/18 04:01:18;;;;;;;33.95;7.85;;;;;;;;;;5047365;28;25627;-60
2022/06/18 04:03:46;;;;;;;35.55;7.93;;;;;;;;;;5079957;28;20438;-61
2022/06/18 04:06:44;;;;;;;50.20;9.00;;;;;;;;;;5027786;28;20056;-61
2022/06/18 04:09:35;;;;;;;26.67;7.32;;;;;;;;;;5050479;28;20049;-60
2022/06/18 04:12:04;;;;;;;42.65;8.73;;;;;;;;;;5043084;28;20041;-60
2022/06/18 04:14:47;;;;;;;27.65;6.93;;;;;;;;;;5043444;28;20044;-61
2022/06/18 04:17:29;;;;;;;42.15;8.43;;;;;;;;;;5043014;28;20045;-61
2022/06/18 04:19:56;;;;;;;23.63;6.82;;;;;;;;;;5043072;28;20041;-61
2022/06/18 04:22:23;;;;;;;38.72;8.48;;;;;;;;;;5045113;28;20045;-60
2022/06/18 04:24:58;;;;;;;75.80;11.05;;;;;;;;;;5044153;28;20045;-60
2022/06/18 04:27:24;;;;;;;31.42;7.53;;;;;;;;;;5078421;28;20139;-60
2022/06/18 04:29:51;;;;;;;77.68;11.05;;;;;;;;;;5043988;28;20568;-62
2022/06/18 04:32:21;;;;;;;104.38;12.45;;;;;;;;;;5046996;28;20044;-62
2022/06/18 04:34:48;;;;;;;19.27;6.63;;;;;;;;;;5043103;28;20052;-61
2022/06/18 04:37:43;;;;;;;33.55;7.10;;;;;;;;;;5042818;28;20398;-60
2022/06/18 04:40:28;;;;;;;57.58;9.23;;;;;;;;;;5045469;28;20052;-61
2022/06/18 04:43:18;;;;;;;50.65;8.38;;;;;;;;;;5043370;28;20059;-60
2022/06/18 04:45:50;;;;;;;35.58;7.40;;;;;;;;;;5044787;28;20123;-61
2022/06/18 04:48:22;;;;;;;51.53;8.88;;;;;;;;;;5041813;28;20156;-60
2022/06/18 04:50:50;;;;;;;51.80;8.88;;;;;;;;;;5042260;28;20044;-60
2022/06/18 04:53:18;;;;;;;37.33;8.02;;;;;;;;;;5037139;28;20064;-61
2022/06/18 04:55:49;;;;;;;26.15;6.22;;;;;;;;;;5041511;28;20044;-61
2022/06/18 04:58:15;;;;;;;58.83;8.90;;;;;;;;;;5044424;28;20049;-60
2022/06/18 05:00:53;;;;;;;31.08;6.82;;;;;;;;;;5041033;28;20453;-60
2022/06/18 05:03:42;;;;;;;44.03;7.22;;;;;;;;;;5046976;28;20056;-60
2022/06/18 05:06:21;;;;;;;31.33;6.65;;;;;;;;;;5043388;28;20565;-60
2022/06/18 05:08:59;;;;;;;27.75;5.80;;;;;;;;;;5044746;28;20059;-61
2022/06/18 05:11:36;;;;;;;28.77;5.93;;;;;;;;;;5043881;28;20045;-61
2022/06/18 05:14:30;;;;;;;27.40;5.50;;;;;;;;;;5042902;28;20138;-61
2022/06/18 05:17:02;;;;;;;35.45;6.57;;;;;;;;;;5043261;28;20037;-61
2022/06/18 05:19:32;;;;;;;28.20;5.53;;;;;;;;;;5041805;28;20452;-60
2022/06/18 05:22:01;;;;;;;36.65;6.32;;;;;;;;;;5083573;28;20045;-65
2022/06/18 05:24:29;;;;;;;43.03;6.55;;;;;;;;;;5043911;28;20102;-66
2022/06/18 05:26:58;;;;;;;74.72;9.07;;;;;;;;;;5041815;28;20464;-67
2022/06/18 05:29:25;;;;;;;30.30;5.68;;;;;;;;;;5041887;28;20041;-64
2022/06/18 05:31:52;;;;;;;51.15;7.07;;;;;;;;;;5041877;28;20037;-66
2022/06/18 05:34:22;;;;;;;35.38;5.78;;;;;;;;;;5043297;28;20073;-64
2022/06/18 05:36:49;;;;;;;150.60;12.32;;;;;;;;;;5049559;28;20162;-63
2022/06/18 05:39:19;;;;;;;44.00;5.57;;;;;;;;;;5041575;28;20079;-64
2022/06/18 05:41:45;;;;;;;43.72;5.68;;;;;;;;;;5038719;28;20033;-61
2022/06/18 05:44:12;;;;;;;24.02;4.80;;;;;;;;;;5046317;28;20456;-63
2022/06/18 05:46:39;;;;;;;37.25;5.47;;;;;;;;;;5035597;28;20494;-62
2022/06/18 05:49:07;;;;;;;43.25;5.80;;;;;;;;;;5047556;28;20118;-65
2022/06/18 05:51:35;;;;;;;31.67;4.97;;;;;;;;;;5042983;28;20061;-63
2022/06/18 05:54:02;;;;;;;35.65;5.25;;;;;;;;;;5041986;28;20041;-66
2022/06/18 05:56:43;;;;;;;45.65;5.53;;;;;;;;;;5039094;28;20037;-64
2022/06/18 05:59:24;;;;;;;33.22;4.68;;;;;;;;;;5041818;28;20156;-64
2022/06/18 06:01:51;;;;;;;24.67;3.75;;;;;;;;;;5042616;28;20045;-66
2022/06/18 06:04:19;;;;;;;49.55;6.15;;;;;;;;;;5044171;28;20045;-65
2022/06/18 06:06:51;;;;;;;21.60;3.53;;;;;;;;;;5049665;28;20132;-63
2022/06/18 06:12:08;;;;;;;25.58;3.83;;;;;;;;;;5041191;28;20045;-66
2022/06/18 06:14:35;;;;;;;18.20;3.38;;;;;;;;;;5041293;28;20063;-66
2022/06/18 06:17:03;;;;;;;47.85;4.95;;;;;;;;;;5041406;28;20485;-65
2022/06/18 06:19:30;;;;;;;23.85;3.47;;;;;;;;;;5042059;28;20057;-65
2022/06/18 06:21:56;;;;;;;34.58;4.30;;;;;;;;;;5051843;28;20524;-66
2022/06/18 06:24:23;;;;;;;42.38;4.93;;;;;;;;;;5042296;28;20051;-66
2022/06/18 06:26:51;;;;;;;33.55;4.47;;;;;;;;;;5042323;28;20068;-66
2022/06/18 06:29:18;;;;;;;31.55;4.18;;;;;;;;;;5048194;28;20571;-64
2022/06/18 06:31:45;;;;;;;43.28;4.72;;;;;;;;;;5028032;28;20049;-67
2022/06/18 06:34:11;;;;;;;75.18;7.22;;;;;;;;;;5047978;28;20049;-67
2022/06/18 06:36:38;;;;;;;49.53;5.43;;;;;;;;;;5050187;28;20432;-67
2022/06/18 06:39:05;;;;;;;62.65;6.00;;;;;;;;;;5045835;28;20382;-67
2022/06/18 06:41:31;;;;;;;19.80;3.03;;;;;;;;;;5047292;28;20041;-67
2022/06/18 06:43:58;;;;;;;33.80;4.38;;;;;;;;;;5046612;28;20090;-64
2022/06/18 06:46:30;;;;;;;537.10;50.03;;;;;;;;;;5039664;28;20507;-64
2022/06/18 06:48:58;;;;;;;36.22;4.38;;;;;;;;;;5033730;28;20564;-64
2022/06/18 06:51:26;;;;;;;31.95;4.15;;;;;;;;;;5046102;28;20115;-63
2022/06/18 06:53:52;;;;;;;44.30;5.05;;;;;;;;;;5046785;28;20033;-64
2022/06/18 06:59:05;;;;;;;36.30;3.95;;;;;;;;;;5045153;28;20047;-64
2022/06/18 07:01:34;;;;;;;36.85;4.65;;;;;;;;;;5045759;28;20048;-64
2022/06/18 07:04:02;;;;;;;33.10;3.97;;;;;;;;;;5054225;28;20044;-64
2022/06/18 07:06:29;;;;;;;41.33;4.60;;;;;;;;;;5047510;28;20465;-69
2022/06/18 07:08:56;;;;;;;18.10;3.28;;;;;;;;;;5045866;28;20485;-68
2022/06/18 07:11:22;;;;;;;50.15;4.72;;;;;;;;;;5047185;28;20045;-68
2022/06/18 07:13:49;;;;;;;30.20;3.88;;;;;;;;;;5049454;28;20057;-70
2022/06/18 07:16:16;;;;;;;44.08;4.57;;;;;;;;;;5050157;28;20052;-79
2022/06/18 07:18:43;;;;;;;67.72;6.63;;;;;;;;;;5052394;28;20128;-65
2022/06/18 07:21:11;;;;;;;73.25;6.32;;;;;;;;;;5045945;28;20045;-65
2022/06/18 07:23:38;;;;;;;83.78;8.10;;;;;;;;;;5044603;28;20052;-65
2022/06/18 07:26:05;;;;;;;41.97;4.60;;;;;;;;;;5045407;28;20037;-62
2022/06/18 07:28:39;;;;;;;38.22;4.63;;;;;;;;;;5045158;28;20052;-66
2022/06/18 07:31:06;;;;;;;50.38;5.22;;;;;;;;;;5052077;28;20045;-66
2022/06/18 07:33:33;;;;;;;24.00;3.33;;;;;;;;;;5049270;28;20090;-66
2022/06/18 07:36:00;;;;;;;58.40;5.88;;;;;;;;;;5045145;28;20029;-65
2022/06/18 07:38:26;;;;;;;26.60;3.65;;;;;;;;;;5045034;28;20493;-61
2022/06/18 07:40:54;;;;;;;105.10;8.82;;;;;;;;;;5045149;28;20071;-61
2022/06/18 07:43:28;;;;;;;41.55;4.60;;;;;;;;;;5047478;28;20517;-61
2022/06/18 07:45:55;;;;;;;43.05;4.38;;;;;;;;;;5046598;28;20133;-61
2022/06/18 07:48:22;;;;;;;44.97;4.55;;;;;;;;;;5036377;28;20472;-61
2022/06/18 07:50:50;;;;;;;32.72;3.55;;;;;;;;;;5043831;28;20040;-61
2022/06/18 07:53:17;;;;;;;35.78;4.18;;;;;;;;;;5044383;28;20041;-62
2022/06/18 07:55:44;;;;;;;33.30;3.85;;;;;;;;;;5044681;28;20038;-61
2022/06/18 07:58:11;;;;;;;83.65;6.57;;;;;;;;;;5048769;28;20053;-61
2022/06/18 08:00:42;;;;;;;163.55;12.43;;;;;;;;;;5048643;28;20095;-62
2022/06/18 08:03:10;;;;;;;112.78;8.10;;;;;;;;;;5044403;28;20056;-61
2022/06/18 08:05:37;;;;;;;63.70;5.95;;;;;;;;;;5044856;28;20041;-61
2022/06/18 08:08:04;;;;;;;40.75;4.40;;;;;;;;;;5044988;28;20033;-61
2022/06/18 08:10:52;;;;;;;54.80;5.03;;;;;;;;;;5044274;28;20034;-61
2022/06/18 08:13:19;;;;;;;53.35;5.60;;;;;;;;;;5048378;28;20067;-61
2022/06/18 08:15:47;;;;;;;63.05;5.85;;;;;;;;;;5050687;28;20041;-61
2022/06/18 08:18:14;;;;;;;66.20;6.90;;;;;;;;;;5043972;28;20823;-62
2022/06/18 08:20:54;;;;;;;45.10;4.70;;;;;;;;;;5044939;28;20056;-61
2022/06/18 08:23:21;;;;;;;127.45;9.95;;;;;;;;;;5044449;28;20068;-60
2022/06/18 08:25:48;;;;;;;37.30;4.15;;;;;;;;;;5044453;28;20045;-61
2022/06/18 08:28:15;;;;;;;39.35;4.07;;;;;;;;;;5051232;28;20045;-61
2022/06/18 08:30:42;;;;;;;58.05;6.40;;;;;;;;;;5051062;28;20501;-61
2022/06/18 08:33:09;;;;;;;42.95;5.40;;;;;;;;;;5043900;28;20044;-61
2022/06/18 08:35:37;;;;;;;29.25;3.22;;;;;;;;;;5044138;28;20033;-61
2022/06/18 08:38:05;;;;;;;52.90;5.05;;;;;;;;;;5044129;28;20116;-61
2022/06/18 08:40:35;;;;;;;416.45;33.45;;;;;;;;;;5044650;28;20038;-61
2022/06/18 08:43:07;;;;;;;38.35;3.95;;;;;;;;;;5045420;28;20052;-61
2022/06/18 08:45:54;;;;;;;54.47;5.05;;;;;;;;;;5038355;28;20056;-61
2022/06/18 08:48:24;;;;;;;54.92;4.78;;;;;;;;;;5042657;28;20047;-62
2022/06/18 08:51:07;;;;;;;43.20;3.97;;;;;;;;;;5043078;28;20576;-61
2022/06/18 08:53:53;;;;;;;47.80;4.30;;;;;;;;;;5044776;28;20047;-61
2022/06/18 08:56:35;;;;;;;35.20;3.88;;;;;;;;;;5041592;28;20045;-61
2022/06/18 08:59:04;;;;;;;50.42;4.63;;;;;;;;;;5043566;28;20056;-62
2022/06/18 09:01:38;;;;;;;28.67;3.42;;;;;;;;;;5044558;28;20041;-62
2022/06/18 09:04:08;;;;;;;41.65;4.28;;;;;;;;;;5044490;28;20048;-61
2022/06/18 09:06:44;;;;;;;76.10;6.57;;;;;;;;;;5045656;28;20063;-61
2022/06/18 09:09:14;;;;;;;33.55;3.92;;;;;;;;;;5043708;28;20447;-61
2022/06/18 09:11:41;;;;;;;129.00;10.00;;;;;;;;;;5043987;28;20029;-61
2022/06/18 09:14:10;;;;;;;590.38;43.85;;;;;;;;;;5043993;28;20079;-61
2022/06/18 09:16:47;;;;;;;58.72;5.65;;;;;;;;;;5044269;28;20509;-61
2022/06/18 09:19:17;;;;;;;57.35;5.30;;;;;;;;;;5049766;28;20067;-61
2022/06/18 09:21:48;;;;;;;49.35;4.78;;;;;;;;;;5048220;28;20037;-61
2022/06/18 09:24:18;;;;;;;36.63;4.63;;;;;;;;;;5043421;28;20080;-61
2022/06/18 09:26:47;;;;;;;54.40;5.68;;;;;;;;;;5043787;28;20067;-61
2022/06/18 09:29:35;;;;;;;25.17;3.40;;;;;;;;;;5043146;28;20037;-61
2022/06/18 09:32:10;;;;;;;36.40;4.28;;;;;;;;;;5043597;28;20094;-61
2022/06/18 09:34:43;;;;;;;23.58;3.40;;;;;;;;;;5042870;28;20041;-61
2022/06/18 09:37:18;;;;;;;74.22;5.90;;;;;;;;;;5049885;28;20049;-61
2022/06/18 09:39:47;;;;;;;49.03;4.88;;;;;;;;;;5048230;28;20512;-61
2022/06/18 09:42:13;;;;;;;77.32;6.93;;;;;;;;;;5041304;28;20049;-61
2022/06/18 09:44:46;;;;;;;37.22;3.72;;;;;;;;;;5043716;28;20037;-61
2022/06/18 09:47:22;;;;;;;328.60;23.58;;;;;;;;;;5038010;28;20114;-61
2022/06/18 09:49:49;;;;;;;412.33;27.40;;;;;;;;;;5042280;28;20857;-61
2022/06/18 09:52:24;;;;;;;102.75;8.57;;;;;;;;;;5047922;28;20041;-63
2022/06/18 09:54:58;;;;;;;46.95;4.68;;;;;;;;;;5049206;28;20044;-61
2022/06/18 09:57:28;;;;;;;33.80;3.53;;;;;;;;;;5040532;28;20080;-61
2022/06/18 10:00:01;;;;;;;45.60;4.97;;;;;;;;;;5042649;28;20075;-61
2022/06/18 10:02:35;;;;;;;49.83;4.95;;;;;;;;;;5041632;28;20512;-61
2022/06/18 10:07:51;;;;;;;43.83;5.05;;;;;;;;;;5042874;28;20030;-61
2022/06/18 10:10:19;;;;;;;53.72;4.88;;;;;;;;;;5048239;28;20124;-62
2022/06/18 10:12:52;;;;;;;53.50;5.22;;;;;;;;;;5047861;28;20041;-62
2022/06/18 10:15:18;;;;;;;587.58;45.40;;;;;;;;;;5042768;28;20059;-61
2022/06/18 10:18:04;;;;;;;63.05;5.72;;;;;;;;;;5043266;28;20076;-61
2022/06/18 10:20:31;;;;;;;73.30;6.90;;;;;;;;;;5042411;28;20505;-62
2022/06/18 10:23:16;;;;;;;113.40;10.00;;;;;;;;;;5042584;28;20057;-62
2022/06/18 10:25:43;;;;;;;64.15;6.22;;;;;;;;;;5046517;28;20073;-61
2022/06/18 10:28:15;;;;;;;39.25;4.22;;;;;;;;;;5049682;28;20052;-61
2022/06/18 10:31:02;;;;;;;73.80;7.65;;;;;;;;;;5046387;28;20037;-61
2022/06/18 10:33:29;;;;;;;31.50;4.38;;;;;;;;;;5024533;28;20053;-61
2022/06/18 10:36:15;;;;;;;84.18;6.88;;;;;;;;;;5023917;28;20137;-62
2022/06/18 10:38:41;;;;;;;63.90;5.68;;;;;;;;;;5024032;28;20548;-61
2022/06/18 10:41:22;;;;;;;55.55;5.45;;;;;;;;;;5023680;28;20121;-61
2022/06/18 10:43:54;;;;;;;40.85;4.65;;;;;;;;;;5011693;28;20042;-61
2022/06/18 10:46:22;;;;;;;90.35;8.60;;;;;;;;;;5025586;28;20061;-61
2022/06/18 10:48:53;;;;;;;35.67;4.60;;;;;;;;;;5027146;28;20517;-62
2022/06/18 10:51:22;;;;;;;35.10;3.80;;;;;;;;;;5023917;28;20428;-61
2022/06/18 10:53:52;;;;;;;43.47;4.47;;;;;;;;;;5023775;28;20485;-61
2022/06/18 10:56:23;;;;;;;54.97;5.25;;;;;;;;;;5020787;28;20081;-61
2022/06/18 10:58:52;;;;;;;41.35;4.45;;;;;;;;;;5022244;28;20117;-61
2022/06/18 11:01:28;;;;;;;69.00;6.22;;;;;;;;;;5024421;28;20613;-61
2022/06/18 11:03:57;;;;;;;281.95;20.50;;;;;;;;;;5027861;28;20111;-61
2022/06/18 11:06:24;;;;;;;52.53;5.20;;;;;;;;;;5023713;28;20080;-61
2022/06/18 11:08:53;;;;;;;207.63;15.70;;;;;;;;;;5023698;28;20049;-61
2022/06/18 11:11:24;;;;;;;28.08;3.38;;;;;;;;;;5032286;28;20052;-62
2022/06/18 11:13:51;;;;;;;37.65;4.07;;;;;;;;;;5042268;28;20760;-62
2022/06/18 11:16:18;;;;;;;150.32;9.73;;;;;;;;;;5032454;28;20041;-61
2022/06/18 11:18:46;;;;;;;27.35;3.63;;;;;;;;;;5039668;28;20041;-59
2022/06/18 11:21:33;;;;;;;67.47;6.13;;;;;;;;;;5033437;28;20034;-60
2022/06/18 11:24:05;;;;;;;61.85;4.93;;;;;;;;;;5042105;28;20072;-59
2022/06/18 11:26:41;;;;;;;49.38;4.93;;;;;;;;;;5038553;28;20106;-59
2022/06/18 11:29:13;;;;;;;118.22;9.18;;;;;;;;;;5031538;28;20121;-60
2022/06/18 11:31:44;;;;;;;72.85;6.47;;;;;;;;;;5028425;28;20466;-59
2022/06/18 11:34:27;;;;;;;138.93;10.65;;;;;;;;;;5046488;28;20065;-60
2022/06/18 11:36:56;;;;;;;129.02;9.10;;;;;;;;;;5051987;28;20103;-60
2022/06/18 11:39:29;;;;;;;24.42;3.00;;;;;;;;;;5045516;28;20063;-60
2022/06/18 11:41:58;;;;;;;33.80;3.85;;;;;;;;;;5041617;28;20040;-60
2022/06/18 11:44:27;;;;;;;46.60;4.28;;;;;;;;;;5039897;28;20052;-60
2022/06/18 11:47:13;;;;;;;40.42;3.63;;;;;;;;;;5045015;28;20077;-60
2022/06/18 11:49:45;;;;;;;147.80;13.05;;;;;;;;;;5037056;28;20056;-61
2022/06/18 11:52:31;;;;;;;121.32;10.00;;;;;;;;;;5033300;28;20043;-60
2022/06/18 11:55:02;;;;;;;41.42;3.85;;;;;;;;;;5049659;28;20442;-61
2022/06/18 11:57:32;;;;;;;43.55;4.07;;;;;;;;;;5041928;28;20519;-61
2022/06/18 11:59:58;;;;;;;137.93;10.20;;;;;;;;;;5044457;28;20045;-61
2022/06/18 12:02:35;;;;;;;92.30;6.75;;;;;;;;;;5045333;28;20040;-61
2022/06/18 12:05:11;;;;;;;84.35;7.38;;;;;;;;;;5035781;28;20036;-60
2022/06/18 12:07:43;;;;;;;63.83;5.80;;;;;;;;;;5028934;28;20038;-61
2022/06/18 12:10:11;;;;;;;48.88;4.50;;;;;;;;;;5035259;28;20049;-72
2022/06/18 12:12:49;;;;;;;69.25;5.93;;;;;;;;;;5034913;28;20053;-69
2022/06/18 12:15:33;;;;;;;29.45;3.38;;;;;;;;;;5043498;28;20044;-65
2022/06/18 12:18:04;;;;;;;52.95;5.05;;;;;;;;;;5045015;28;20029;-61
2022/06/18 12:20:40;;;;;;;36.05;3.70;;;;;;;;;;5033973;28;20524;-61
2022/06/18 12:23:17;;;;;;;44.90;4.07;;;;;;;;;;5032022;28;20041;-61
2022/06/18 12:25:44;;;;;;;33.38;3.83;;;;;;;;;;5020663;28;20092;-62
2022/06/18 12:28:17;;;;;;;74.47;5.93;;;;;;;;;;5051408;28;20041;-61
2022/06/18 12:30:43;;;;;;;;;;;;;;;;;;5039764;28;20104;-61
2022/06/18 12:33:13;;;;;;;51.85;5.20;;;;;;;;;;5040745;28;20019;-61
2022/06/18 12:36:00;;;;;;;76.78;6.60;;;;;;;;;;5044008;28;20040;-61
2022/06/18 12:38:50;;;;;;;70.85;6.80;;;;;;;;;;5039849;28;20049;-61
2022/06/18 12:41:21;;;;;;;37.15;4.18;;;;;;;;;;5034849;28;20504;-62
2022/06/18 12:43:48;;;;;;;73.82;6.47;;;;;;;;;;5043700;28;20475;-62
2022/06/18 12:46:26;;;;;;;89.70;7.07;;;;;;;;;;5039669;28;20045;-61
2022/06/18 12:49:05;;;;;;;28.13;3.50;;;;;;;;;;5082380;28;20049;-62
2022/06/18 12:51:52;;;;;;;42.42;4.20;;;;;;;;;;5043737;28;20062;-70
2022/06/18 12:54:18;;;;;;;48.15;4.35;;;;;;;;;;5039105;28;20045;-69
2022/06/18 12:57:01;;;;;;;89.82;7.50;;;;;;;;;;5040014;28;20040;-69
2022/06/18 12:59:40;;;;;;;69.03;5.72;;;;;;;;;;5040237;28;20049;-68
2022/06/18 13:02:25;;;;;;;41.85;4.28;;;;;;;;;;5027971;28;20120;-67
2022/06/18 13:05:12;;;;;;;113.13;9.63;;;;;;;;;;5030072;28;20041;-67
2022/06/18 13:07:51;;;;;;;44.22;4.70;;;;;;;;;;5026934;28;20069;-68
2022/06/18 13:10:27;;;;;;;50.85;5.30;;;;;;;;;;5030618;28;20069;-68
2022/06/18 13:13:05;;;;;;;42.65;5.15;;;;;;;;;;5036539;28;20053;-62
2022/06/18 13:15:37;;;;;;;30.42;3.55;;;;;;;;;;5032929;28;20069;-62
2022/06/18 13:18:04;;;;;;;37.28;3.38;;;;;;;;;;5034992;28;20029;-61
2022/06/18 13:20:30;;;;;;;38.22;3.80;;;;;;;;;;5036735;28;20045;-62
2022/06/18 13:22:58;;;;;;;43.65;4.00;;;;;;;;;;5043018;28;20100;-62
2022/06/18 13:28:26;;;;;;;18.58;2.83;;;;;;;;;;5047535;28;20048;-62
2022/06/18 13:30:53;;;;;;;;;;;;;;;;;;5046687;28;20402;-62
2022/06/18 13:33:22;;;;;;;32.72;3.63;;;;;;;;;;5029788;28;19983;-62
2022/06/18 13:36:01;;;;;;;84.78;7.22;;;;;;;;;;5026312;28;20559;-62
2022/06/18 13:38:35;;;;;;;35.70;3.78;;;;;;;;;;5027323;28;20034;-62
2022/06/18 13:41:11;;;;;;;35.30;3.60;;;;;;;;;;5027003;28;20111;-63
2022/06/18 13:43:45;;;;;;;31.30;4.03;;;;;;;;;;5027899;28;20442;-63
2022/06/18 13:46:25;;;;;;;44.13;5.03;;;;;;;;;;5030173;28;20540;-61
2022/06/18 13:49:04;;;;;;;28.83;3.25;;;;;;;;;;5031496;28;20038;-63
2022/06/18 13:51:33;;;;;;;51.83;4.93;;;;;;;;;;5028246;28;20045;-61
2022/06/18 13:54:04;;;;;;;37.85;4.43;;;;;;;;;;5028963;28;20574;-63
2022/06/18 13:56:30;;;;;;;36.97;4.53;;;;;;;;;;5026171;28;20489;-65
2022/06/18 13:58:58;;;;;;;87.85;7.88;;;;;;;;;;5027137;28;20100;-66
2022/06/18 14:01:25;;;;;;;139.05;10.40;;;;;;;;;;5030598;28;20041;-66
2022/06/18 14:03:55;;;;;;;42.42;4.55;;;;;;;;;;5033605;28;20063;-65
2022/06/18 14:06:22;;;;;;;44.47;5.13;;;;;;;;;;5031985;28;20138;-65
2022/06/18 14:08:50;;;;;;;27.55;3.65;;;;;;;;;;5028103;28;20041;-64
2022/06/18 14:11:34;;;;;;;142.45;9.82;;;;;;;;;;5029233;28;20049;-64
2022/06/18 14:14:03;;;;;;;211.50;15.68;;;;;;;;;;5030345;28;20059;-65
2022/06/18 14:16:38;;;;;;;31.17;3.63;;;;;;;;;;5045412;28;20402;-65
2022/06/18 14:19:09;;;;;;;28.17;3.28;;;;;;;;;;5042856;28;20048;-70
2022/06/18 14:21:36;;;;;;;20.90;2.88;;;;;;;;;;5044433;28;20041;-66
2022/06/18 14:24:04;;;;;;;43.08;4.30;;;;;;;;;;5042849;28;20494;-64
2022/06/18 14:26:42;;;;;;;33.90;3.75;;;;;;;;;;5042326;28;20120;-66
2022/06/18 14:29:09;;;;;;;22.27;3.03;;;;;;;;;;5043532;28;20051;-64
2022/06/18 14:31:43;;;;;;;63.38;5.38;;;;;;;;;;5043931;28;20053;-65
2022/06/18 14:34:13;;;;;;;65.78;4.72;;;;;;;;;;5050586;28;20041;-66
2022/06/18 14:36:41;;;;;;;79.72;6.35;;;;;;;;;;5035242;28;20045;-68
2022/06/18 14:39:18;;;;;;;22.25;3.22;;;;;;;;;;5038476;28;20049;-65
2022/06/18 14:41:48;;;;;;;23.13;2.92;;;;;;;;;;5037978;28;20048;-65
2022/06/18 14:44:33;;;;;;;110.97;7.57;;;;;;;;;;5042435;28;20107;-66
2022/06/18 14:47:19;;;;;;;28.48;2.85;;;;;;;;;;5041761;28;20079;-66
2022/06/18 14:49:55;;;;;;;41.17;3.83;;;;;;;;;;5045344;28;20406;-65
2022/06/18 14:52:41;;;;;;;67.88;5.97;;;;;;;;;;5050736;28;20051;-66
2022/06/18 14:55:16;;;;;;;12.88;2.53;;;;;;;;;;5047290;28;20378;-66
2022/06/18 14:57:46;;;;;;;43.13;4.22;;;;;;;;;;5045507;28;20405;-65
2022/06/18 15:00:32;;;;;;;27.65;3.22;;;;;;;;;;5047259;28;20419;-64
2022/06/18 15:03:12;;;;;;;72.35;6.22;;;;;;;;;;5027225;28;20104;-63
2022/06/18 15:05:40;;;;;;;32.17;3.35;;;;;;;;;;5027820;28;20531;-63
2022/06/18 15:08:25;;;;;;;13.25;2.20;;;;;;;;;;5027539;28;20569;-63
2022/06/18 15:10:54;;;;;;;52.60;5.28;;;;;;;;;;5027935;28;20049;-65
2022/06/18 15:13:21;;;;;;;91.20;6.80;;;;;;;;;;5030754;28;20496;-65